createdAt,value
2023-02-20T01:03:40.245Z,5.50
2023-02-20T01:06:17.072Z,5.40
2023-02-20T01:09:02.691Z,5.40
2023-02-20T01:30:37.252Z,5.10
2023-02-20T01:33:09.348Z,5.10
2023-02-20T01:35:49.814Z,5.10
2023-02-20T01:39:04.135Z,5.10
2023-02-20T01:48:30.129Z,5.30
2023-02-20T01:50:59.495Z,5.40
2023-02-20T02:01:48.859Z,5.50
2023-02-20T02:04:22.700Z,5.60
2023-02-20T02:07:16.101Z,5.60
2023-02-20T02:10:10.000Z,5.60
2023-02-20T02:39:07.088Z,5.90
2023-02-20T03:04:26.236Z,6.10
2023-02-20T03:26:25.739Z,6.20
2023-02-20T03:32:12.359Z,6.20
2023-02-20T03:34:53.184Z,6.20
2023-02-20T03:37:26.464Z,6.30
2023-02-20T03:39:59.486Z,6.30
2023-02-20T03:42:32.420Z,6.30
2023-02-20T03:50:59.101Z,6.40
2023-02-20T03:53:26.682Z,6.40
2023-02-20T03:56:31.338Z,6.40
2023-02-20T05:25:33.536Z,6.90
2023-02-20T05:49:52.028Z,7.00
2023-02-20T05:52:27.777Z,7.00
2023-02-20T05:54:54.416Z,7.00
2023-02-20T05:57:23.897Z,7.00
2023-02-20T05:59:50.539Z,7.00
2023-02-20T06:02:20.457Z,7.00
2023-02-20T06:04:59.966Z,7.00
2023-02-20T06:07:35.597Z,7.00
2023-02-20T06:10:12.328Z,7.00
2023-02-20T06:12:40.711Z,7.00
2023-02-20T06:15:07.679Z,7.00
2023-02-20T06:17:44.858Z,7.00
2023-02-20T06:20:12.336Z,7.00
2023-02-20T08:35:32.106Z,7.60
2023-02-20T08:38:35.324Z,7.70
2023-02-20T08:41:09.466Z,7.70
2023-02-20T08:43:54.250Z,7.70
2023-02-20T08:46:21.533Z,7.70
2023-02-20T08:51:42.075Z,7.80
2023-02-20T08:54:21.344Z,7.80
2023-02-20T08:57:00.220Z,7.90
2023-02-20T09:03:22.849Z,7.90
2023-02-20T09:08:56.392Z,7.90
2023-02-20T09:12:31.672Z,7.90
2023-02-20T09:14:58.762Z,8.00
2023-02-20T09:17:39.723Z,8.00
2023-02-20T09:20:09.501Z,8.00
2023-02-20T09:25:48.768Z,8.00
2023-02-20T09:28:15.824Z,8.00
2023-02-20T09:42:09.778Z,8.00
2023-02-20T09:51:25.767Z,8.00
2023-02-20T10:11:03.422Z,8.30
2023-02-20T10:13:36.262Z,8.30
2023-02-20T10:16:35.050Z,8.30
2023-02-20T10:28:56.029Z,8.40
2023-02-20T10:31:37.493Z,8.40
2023-02-20T10:34:25.554Z,8.40
2023-02-20T10:58:33.387Z,8.40
2023-02-20T11:01:39.716Z,8.40
2023-02-20T11:04:45.565Z,8.40
2023-02-20T11:07:55.134Z,8.40
2023-02-20T11:13:17.601Z,8.40
2023-02-20T11:22:08.847Z,8.40
2023-02-20T11:32:58.320Z,8.60
2023-02-20T11:38:43.262Z,8.60
2023-02-20T12:22:58.130Z,8.90
2023-02-20T12:25:58.010Z,8.90
2023-02-20T12:37:52.706Z,8.90
2023-02-20T12:44:16.827Z,8.90
2023-02-20T12:52:45.480Z,8.90
2023-02-20T12:55:33.946Z,8.90
2023-02-20T13:08:07.127Z,9.10
2023-02-20T13:17:13.814Z,9.20
2023-02-20T13:20:06.368Z,9.20
2023-02-20T13:22:43.191Z,9.20
2023-02-20T13:25:41.871Z,9.10
2023-02-20T13:34:43.730Z,9.10
2023-02-20T13:37:41.922Z,9.10
2023-02-20T13:50:33.572Z,9.00
2023-02-20T13:53:05.152Z,9.00
2023-02-20T13:55:33.296Z,9.00
2023-02-20T14:01:04.839Z,8.90
2023-02-20T14:03:36.941Z,8.90
2023-02-20T14:06:11.461Z,8.90
2023-02-20T14:08:41.619Z,8.90
2023-02-20T14:11:44.030Z,8.80
2023-02-20T14:17:20.400Z,8.90
2023-02-20T14:20:05.404Z,8.80
2023-02-20T14:22:54.561Z,8.80
2023-02-20T14:25:28.063Z,8.80
2023-02-20T14:28:29.023Z,8.80
2023-02-20T14:31:30.496Z,8.80
2023-02-20T14:37:56.149Z,8.80
2023-02-20T14:40:55.310Z,8.80
2023-02-20T14:43:26.717Z,8.80
2023-02-20T14:46:33.948Z,8.90
2023-02-20T14:49:17.138Z,8.90
2023-02-20T14:54:45.366Z,8.80
2023-02-20T14:57:28.574Z,8.80
2023-02-20T15:03:41.639Z,8.70
2023-02-20T15:06:15.274Z,8.80
2023-02-20T15:08:44.656Z,8.80
2023-02-20T15:11:49.925Z,8.70
2023-02-20T15:14:32.347Z,8.70
2023-02-20T15:17:07.983Z,8.70
2023-02-20T15:23:16.353Z,8.70
2023-02-20T15:31:12.517Z,8.60
2023-02-20T15:33:52.433Z,8.60
2023-02-20T15:36:28.568Z,8.50
2023-02-20T15:38:58.302Z,8.50
2023-02-20T15:41:25.054Z,8.50
2023-02-20T15:45:20.580Z,8.50
2023-02-20T16:25:51.691Z,8.50
2023-02-20T16:29:06.975Z,8.50
2023-02-20T16:37:25.234Z,8.60
2023-02-20T16:42:56.948Z,8.60
2023-02-20T16:45:33.585Z,8.60
2023-02-20T16:57:25.570Z,8.50
2023-02-20T16:59:43.940Z,8.40
2023-02-20T17:02:16.787Z,8.40
2023-02-20T17:04:47.001Z,8.40
2023-02-20T17:07:21.650Z,8.40
2023-02-20T17:09:49.422Z,8.40
2023-02-20T17:12:20.305Z,8.40
2023-02-20T17:15:03.535Z,8.30
2023-02-20T17:17:30.539Z,8.30
2023-02-20T17:19:58.363Z,8.30
2023-02-20T17:22:28.983Z,8.30
2023-02-20T17:25:01.331Z,8.30
2023-02-20T17:30:06.160Z,8.30
2023-02-20T17:32:40.863Z,8.30
2023-02-20T17:35:11.740Z,8.30
2023-02-20T17:37:50.385Z,8.30
2023-02-20T17:40:19.934Z,8.30
2023-02-20T17:42:47.210Z,8.30
2023-02-20T17:45:26.227Z,8.20
2023-02-20T17:48:05.595Z,8.20
2023-02-20T17:50:47.142Z,8.20
2023-02-20T17:53:28.466Z,8.10
2023-02-20T17:56:00.407Z,8.10
2023-02-20T17:58:36.193Z,8.10
2023-02-20T18:01:05.187Z,8.10
2023-02-20T18:06:17.667Z,8.00
2023-02-20T18:08:49.541Z,8.00
2023-02-20T18:11:25.673Z,8.00
2023-02-20T18:13:58.990Z,8.00
2023-02-20T18:16:28.512Z,8.00
2023-02-20T18:18:58.373Z,8.00
2023-02-20T18:21:28.219Z,8.00
2023-02-20T18:23:55.672Z,8.00
2023-02-20T18:26:22.924Z,8.00
2023-02-20T18:28:50.152Z,8.00
2023-02-20T18:31:33.592Z,8.00
2023-02-20T18:34:25.255Z,8.00
2023-02-20T18:36:51.979Z,7.90
2023-02-20T18:39:18.680Z,7.90
2023-02-20T18:41:53.989Z,7.90
2023-02-20T18:44:21.240Z,7.80
2023-02-20T18:46:47.972Z,7.80
2023-02-20T18:49:15.035Z,7.80
2023-02-20T18:51:48.505Z,7.80
2023-02-20T20:11:26.526Z,7.70
2023-02-20T20:13:58.231Z,7.70
2023-02-20T20:16:25.113Z,7.70
2023-02-20T20:18:52.204Z,7.70
2023-02-20T20:21:19.907Z,7.70
2023-02-20T20:23:46.761Z,7.70
2023-02-20T20:26:13.731Z,7.80
2023-02-20T20:28:40.648Z,7.80
2023-02-20T20:31:07.440Z,7.80
2023-02-20T20:33:41.125Z,7.80
2023-02-20T20:36:08.128Z,7.70
2023-02-20T20:38:43.273Z,7.70
2023-02-20T20:41:11.565Z,7.70
2023-02-20T20:43:42.472Z,7.70
2023-02-20T20:46:09.529Z,7.70
2023-02-20T20:48:36.614Z,7.70
2023-02-20T20:51:03.355Z,7.70
2023-02-20T20:53:30.133Z,7.70
2023-02-20T20:55:57.056Z,7.80
2023-02-20T20:58:23.735Z,7.70
2023-02-20T21:00:50.743Z,7.80
2023-02-20T21:03:18.149Z,7.80
2023-02-20T21:05:45.221Z,7.80
2023-02-20T21:08:12.127Z,7.80
2023-02-20T21:10:38.916Z,7.80
2023-02-20T21:13:05.931Z,7.80
2023-02-20T21:15:32.757Z,7.80
2023-02-20T21:18:00.070Z,7.80
2023-02-20T21:20:27.981Z,7.80
2023-02-20T21:22:54.892Z,7.80
2023-02-20T21:25:22.797Z,7.70
2023-02-20T21:27:51.639Z,7.80
2023-02-20T21:30:19.489Z,7.80
2023-02-20T21:32:46.291Z,7.80
2023-02-20T21:35:14.962Z,7.80
2023-02-20T21:37:41.772Z,7.80
2023-02-20T21:40:09.458Z,7.70
2023-02-20T21:42:36.264Z,7.70
2023-02-20T21:45:03.259Z,7.70
2023-02-20T21:47:30.022Z,7.70
2023-02-20T21:49:56.671Z,7.70
2023-02-20T22:08:58.857Z,7.60
